Aérodrome :
LOGIN :

S'inscrire | Disclaimer

   EN    FR    IT 

 










Légende :    VFR   VFR Marginal   IFR   IFR Intensif   IFR Très Intensif
Visi : 
Plafond : 
>= 8 km
>= 3000ft
5 à 8 km
1000 à 3000 ft
1500m à 5 km
500 à 1000 ft
800 à 1500m
200 à 500 ft
< 800m
< 200 ft
Symboles :   Orages  Brouillard  Fortes neiges  Fortes précipitations  Vent > 20 kt
SIGMETs :   Divers  Orages  Givrage  Turbulence  Onde Orograph.  Cendres Volcan.







- Altitude de l'aérodrome : 348 ft
- Code IATA : STN
- Voir les cartes d'approche


EGSS - London Stansted

METARs EXPIRÉS :
  • 201450Z AUTO 34014KT 6000 -RA BKN021/// BKN027/// //////TCU 07/04 Q1020

TAF AMD TAF EGSS
Valide du 20 à 14h jusqu'au 21 à 18h UTC


201452Z 2014/2118 34014KT 9999 FEW012 SCT020
TEMPO 2014/2015 8000 -RA
PROB30
TEMPO 2014/2018 35017G27KT
BECMG 2015/2018 6000 -RADZ BKN012
TEMPO 2018/2103 4000 RADZ BR BKN008
BECMG 2021/2024 03004KT
BECMG 2103/2106 9999 NSW FEW010 BKN015
TEMPO 2106/2109 6000
PROB30
TEMPO 2109/2112 BKN010
ATIS : +44 1279 669 325
Pas de NOTAMs connus pour ce terrain.



MET'MAP, la Météo Aéronautique d'un coup d'oeil ! - Copyright ORBIFLY Décembre 2007 - Disclaimer

ORBIFLY MET'MAP TEAM :

Programmation & Développement : Alexandra Zaïnal
Conception & Développement : Baudouin d'Aumeries
Co-Programmation & Développement : Marc-Olivier Méhu
Soutien technique & logistique : Manuel Goepfert

Contact : metmap@orbifly.com




SOURCES & CREDITS :

   NOAA